Time;durP1;ratioP1;P1;durP2;ratioP2;P2;SDS_P1;SDS_P2;PMS_P1;PMS_P2;Temp;Humidity;BMP_temperature;BMP_pressure;BME280_temperature;BME280_humidity;BME280_pressure;Samples;Min_cycle;Max_cycle;Signal;HPM_P1;HPM_P2
2024/01/20 00:00:23;;;;;;;12.57;8.07;;;-4.50;95.50;;;;;;5085766;28;20207;-77
2024/01/20 00:02:49;;;;;;;14.40;8.23;;;-4.60;95.40;;;;;;5085089;28;20212;-78
2024/01/20 00:05:16;;;;;;;12.43;7.20;;;-4.80;95.60;;;;;;5086402;28;20216;-77
2024/01/20 00:07:43;;;;;;;15.10;7.80;;;-4.80;96.10;;;;;;5078418;28;20204;-77
2024/01/20 00:10:16;;;;;;;11.60;7.37;;;-4.80;96.30;;;;;;5085755;28;20202;-77
2024/01/20 00:12:44;;;;;;;11.73;7.33;;;-4.60;95.70;;;;;;5082542;28;20218;-77
2024/01/20 00:15:11;;;;;;;13.07;7.97;;;-4.70;95.40;;;;;;5078090;28;20198;-78
2024/01/20 00:17:39;;;;;;;13.30;7.67;;;-4.80;95.60;;;;;;5078996;28;20204;-77
2024/01/20 00:20:07;;;;;;;11.37;7.10;;;-4.80;95.60;;;;;;5084160;28;20660;-77
2024/01/20 00:22:34;;;;;;;10.67;7.03;;;-4.80;95.60;;;;;;5077474;28;20295;-77
2024/01/20 00:25:02;;;;;;;11.30;7.30;;;-4.80;95.40;;;;;;5081875;28;20560;-77
2024/01/20 00:27:29;;;;;;;12.87;7.27;;;-4.80;95.40;;;;;;5084476;28;20257;-76
2024/01/20 00:30:04;;;;;;;9.40;6.87;;;-4.80;95.40;;;;;;5085122;28;20226;-76
2024/01/20 00:32:32;;;;;;;11.13;6.97;;;-4.90;95.10;;;;;;5082323;28;20213;-79
2024/01/20 00:35:00;;;;;;;9.10;6.40;;;-5.00;95.10;;;;;;5086205;28;20206;-79
2024/01/20 00:37:27;;;;;;;11.90;6.87;;;-5.20;95.50;;;;;;5074094;28;20666;-79
2024/01/20 00:39:54;;;;;;;12.53;7.40;;;-5.30;95.50;;;;;;5079722;28;20223;-79
2024/01/20 00:42:21;;;;;;;11.03;6.63;;;-5.40;95.50;;;;;;5077651;28;20198;-79
2024/01/20 00:44:47;;;;;;;9.93;6.80;;;-5.40;96.00;;;;;;5083836;28;20206;-78
2024/01/20 00:52:37;;;;;;;9.57;6.50;;;-5.20;95.10;;;;;;5082407;28;20229;-79
2024/01/20 00:55:05;;;;;;;11.03;6.67;;;-5.20;94.90;;;;;;5077405;28;20223;-78
2024/01/20 00:57:32;;;;;;;12.03;6.20;;;-5.20;94.70;;;;;;5080357;28;20195;-78
2024/01/20 00:59:58;;;;;;;10.60;6.97;;;-5.10;94.60;;;;;;5083960;28;20281;-79
2024/01/20 01:02:27;;;;;;;9.03;6.23;;;-5.20;94.50;;;;;;5082561;28;20204;-79
2024/01/20 01:04:53;;;;;;;9.80;5.67;;;-5.30;94.60;;;;;;5084277;28;20227;-78
2024/01/20 01:07:20;;;;;;;9.00;5.53;;;-5.40;95.00;;;;;;5071869;28;20204;-78
2024/01/20 01:09:48;;;;;;;9.57;5.63;;;-5.50;95.10;;;;;;5081521;28;20213;-78
2024/01/20 01:12:15;;;;;;;9.70;5.83;;;-5.50;95.20;;;;;;5080235;28;20899;-78
2024/01/20 01:14:42;;;;;;;8.30;5.30;;;-5.40;94.90;;;;;;5075390;28;20223;-79
2024/01/20 01:17:08;;;;;;;9.00;5.37;;;-5.40;94.90;;;;;;5079993;28;20195;-78
2024/01/20 01:19:42;;;;;;;8.93;5.03;;;-5.40;94.70;;;;;;5080215;28;20222;-78
2024/01/20 01:22:09;;;;;;;8.60;5.40;;;-5.40;94.80;;;;;;5076615;28;20674;-78
2024/01/20 01:24:37;;;;;;;8.10;5.03;;;-5.60;94.90;;;;;;5073935;28;20198;-78
2024/01/20 01:27:04;;;;;;;7.63;5.10;;;-5.50;95.00;;;;;;5074725;28;20199;-79
2024/01/20 01:29:31;;;;;;;7.87;5.13;;;-5.40;94.70;;;;;;5075726;28;20202;-79
2024/01/20 01:31:58;;;;;;;9.90;5.00;;;-5.40;94.50;;;;;;5080811;28;20200;-78
2024/01/20 01:34:25;;;;;;;8.07;4.73;;;-5.60;94.50;;;;;;5079845;28;20783;-80
2024/01/20 01:36:53;;;;;;;6.90;4.43;;;-5.70;94.90;;;;;;5075578;28;20201;-78
2024/01/20 01:39:21;;;;;;;7.53;4.90;;;-5.70;95.20;;;;;;5085080;28;20208;-78
2024/01/20 01:41:47;;;;;;;6.97;4.70;;;-5.80;95.40;;;;;;5085684;28;20209;-78
2024/01/20 01:44:14;;;;;;;6.37;4.33;;;-5.80;95.40;;;;;;5085577;28;20217;-79
2024/01/20 01:46:44;;;;;;;7.60;4.50;;;-5.80;95.20;;;;;;5081453;28;21009;-78
2024/01/20 01:49:11;;;;;;;6.20;4.47;;;-5.70;95.10;;;;;;5080035;28;20746;-78
2024/01/20 01:51:38;;;;;;;5.50;4.10;;;-5.70;94.80;;;;;;5085787;28;20200;-78
2024/01/20 01:54:08;;;;;;;7.40;4.20;;;-5.70;94.60;;;;;;5080217;28;20236;-78
2024/01/20 01:56:44;;;;;;;6.47;4.50;;;-5.80;94.70;;;;;;5083271;28;20333;-78
2024/01/20 01:59:12;;;;;;;5.80;4.33;;;-5.70;95.00;;;;;;5083165;28;20194;-78
2024/01/20 02:01:38;;;;;;;6.43;4.57;;;-5.60;94.20;;;;;;5085400;28;20224;-79
2024/01/20 02:04:06;;;;;;;8.13;4.30;;;-5.60;94.00;;;;;;5078532;28;20693;-78
2024/01/20 02:06:32;;;;;;;6.73;4.70;;;-5.60;94.00;;;;;;5082538;28;20205;-78
2024/01/20 02:09:00;;;;;;;6.10;4.43;;;-5.60;93.90;;;;;;5080496;28;20645;-78
2024/01/20 02:11:28;;;;;;;9.33;4.93;;;-5.80;93.90;;;;;;5079070;28;20194;-78
2024/01/20 02:13:55;;;;;;;6.00;4.40;;;-6.00;94.10;;;;;;5084344;28;20251;-78
2024/01/20 02:19:03;;;;;;;8.10;4.20;;;-6.10;95.10;;;;;;5085067;28;20204;-79
2024/01/20 02:21:30;;;;;;;6.07;4.17;;;-6.00;94.60;;;;;;5079389;28;20197;-79
2024/01/20 02:24:00;;;;;;;5.40;3.50;;;-6.00;94.50;;;;;;5076544;28;20201;-79
2024/01/20 02:26:29;;;;;;;6.00;3.83;;;-6.20;94.80;;;;;;5086602;28;20193;-78
2024/01/20 02:28:56;;;;;;;5.03;3.50;;;-6.20;95.00;;;;;;5084844;28;20202;-78
2024/01/20 02:31:22;;;;;;;5.27;3.83;;;-6.20;95.30;;;;;;5085955;28;20211;-78
2024/01/20 02:33:49;;;;;;;5.17;4.13;;;-6.10;94.90;;;;;;5080586;28;20689;-81
2024/01/20 02:36:16;;;;;;;4.97;3.83;;;-6.10;94.40;;;;;;5078055;28;20200;-78
2024/01/20 02:38:43;;;;;;;7.10;3.67;;;-6.10;94.60;;;;;;5084597;28;20204;-78
2024/01/20 02:41:11;;;;;;;7.03;3.80;;;-6.20;94.70;;;;;;5085251;28;20202;-78
2024/01/20 02:43:38;;;;;;;5.87;3.63;;;-6.30;95.00;;;;;;5086294;28;20614;-79
2024/01/20 02:46:05;;;;;;;5.73;3.33;;;-6.30;94.90;;;;;;5080014;28;20204;-78
2024/01/20 02:48:32;;;;;;;4.97;3.73;;;-6.50;94.80;;;;;;5088801;28;20204;-78
2024/01/20 02:51:05;;;;;;;6.03;3.70;;;-6.60;95.10;;;;;;5082109;28;20213;-80
2024/01/20 02:53:32;;;;;;;4.70;3.63;;;-6.60;95.60;;;;;;5083252;28;20212;-79
2024/01/20 02:55:59;;;;;;;4.77;3.43;;;-6.50;96.20;;;;;;5083325;28;20223;-79
2024/01/20 02:58:27;;;;;;;4.80;3.33;;;-6.40;96.10;;;;;;5084872;28;20227;-78
2024/01/20 03:00:54;;;;;;;6.10;3.70;;;-6.20;95.70;;;;;;5083817;28;20198;-79
2024/01/20 03:03:21;;;;;;;4.37;3.37;;;-6.00;94.90;;;;;;5081313;28;20193;-79
2024/01/20 03:05:47;;;;;;;5.63;3.60;;;-5.80;94.40;;;;;;5088037;28;20223;-79
2024/01/20 03:08:34;;;;;;;4.50;3.10;;;-5.90;94.10;;;;;;5087569;28;20192;-78
2024/01/20 03:11:01;;;;;;;4.67;3.20;;;-5.90;94.00;;;;;;5082541;28;20196;-78
2024/01/20 03:13:29;;;;;;;4.07;3.47;;;-5.80;93.80;;;;;;5078524;28;20232;-79
2024/01/20 03:15:56;;;;;;;4.93;3.40;;;-5.90;93.50;;;;;;5085658;28;20201;-79
2024/01/20 03:18:23;;;;;;;4.10;3.20;;;-5.90;93.40;;;;;;5085946;28;20204;-79
2024/01/20 03:21:16;;;;;;;5.13;3.37;;;-6.00;93.50;;;;;;5080227;28;20206;-79
2024/01/20 03:23:43;;;;;;;5.17;3.33;;;-6.10;93.90;;;;;;5076337;28;20202;-78
2024/01/20 03:26:10;;;;;;;4.40;3.37;;;-6.20;93.70;;;;;;5086981;28;20216;-78
2024/01/20 03:28:40;;;;;;;6.13;3.30;;;-6.30;94.00;;;;;;5084412;28;20200;-78
2024/01/20 03:31:07;;;;;;;4.70;2.93;;;-6.40;94.50;;;;;;5083156;28;20193;-78
2024/01/20 03:33:34;;;;;;;4.10;3.37;;;-6.20;94.40;;;;;;5066995;28;20274;-79
2024/01/20 03:36:01;;;;;;;4.80;3.47;;;-6.10;93.70;;;;;;5084165;28;20202;-78
2024/01/20 03:38:27;;;;;;;6.90;3.50;;;-6.30;93.60;;;;;;5082218;28;20206;-78
2024/01/20 03:40:54;;;;;;;5.90;3.80;;;-6.30;93.90;;;;;;5080296;28;20199;-78
2024/01/20 03:43:21;;;;;;;5.13;3.73;;;-6.50;94.00;;;;;;5084181;28;20668;-79
2024/01/20 03:45:49;;;;;;;5.27;3.27;;;-6.60;94.40;;;;;;5081428;28;20648;-79
2024/01/20 03:48:16;;;;;;;4.13;3.20;;;-6.70;94.90;;;;;;5086679;28;20196;-79
2024/01/20 03:50:43;;;;;;;5.37;3.50;;;-6.80;95.20;;;;;;5088713;28;20200;-78
2024/01/20 03:53:10;;;;;;;4.83;3.50;;;-6.80;95.80;;;;;;5088518;28;20799;-78
2024/01/20 03:55:39;;;;;;;6.40;3.40;;;-6.60;95.80;;;;;;5080462;28;20553;-80
2024/01/20 03:58:06;;;;;;;7.10;3.97;;;-6.30;95.20;;;;;;5082486;28;20691;-78
2024/01/20 04:00:33;;;;;;;7.50;3.83;;;-6.20;94.40;;;;;;5080838;28;20199;-78
2024/01/20 04:03:02;;;;;;;5.27;3.30;;;-6.10;93.70;;;;;;5080867;28;20201;-79
2024/01/20 04:05:29;;;;;;;4.87;3.33;;;-6.20;93.70;;;;;;5083120;28;20223;-78
2024/01/20 04:07:56;;;;;;;5.23;3.40;;;-6.40;93.90;;;;;;5077686;28;20252;-79
2024/01/20 04:10:23;;;;;;;5.03;3.20;;;-6.50;94.40;;;;;;5085756;28;20220;-79
2024/01/20 04:12:49;;;;;;;6.20;3.47;;;-6.50;94.50;;;;;;5076623;28;20649;-78
2024/01/20 04:15:17;;;;;;;4.93;2.90;;;-6.40;94.30;;;;;;5079095;28;20596;-79
2024/01/20 04:17:44;;;;;;;5.57;3.30;;;-6.40;94.00;;;;;;5059625;28;20201;-79
2024/01/20 04:20:12;;;;;;;6.70;3.50;;;-6.30;93.70;;;;;;5081400;28;20197;-78
2024/01/20 04:22:39;;;;;;;4.70;3.10;;;-6.50;93.60;;;;;;5084038;28;20209;-78
2024/01/20 04:25:07;;;;;;;4.77;3.40;;;-6.70;93.90;;;;;;5087317;28;20201;-78
2024/01/20 04:27:40;;;;;;;4.57;3.27;;;-6.70;94.50;;;;;;5082576;28;20194;-78
2024/01/20 04:30:08;;;;;;;4.90;3.33;;;-6.70;94.50;;;;;;5078209;28;20197;-79
2024/01/20 04:32:34;;;;;;;4.80;3.20;;;-6.70;94.80;;;;;;5076915;28;20207;-78
2024/01/20 04:35:01;;;;;;;5.33;3.27;;;-6.80;95.20;;;;;;5084837;28;20234;-78
2024/01/20 04:37:29;;;;;;;4.17;3.30;;;-6.80;95.20;;;;;;5081972;28;20430;-78
2024/01/20 04:39:56;;;;;;;5.07;3.13;;;-6.60;95.00;;;;;;5080328;28;20212;-78
2024/01/20 04:42:23;;;;;;;4.67;2.83;;;-6.70;95.10;;;;;;5085422;28;20219;-78
2024/01/20 04:44:50;;;;;;;3.90;2.50;;;-6.80;94.90;;;;;;5081159;28;20203;-78
2024/01/20 04:47:17;;;;;;;5.37;2.43;;;-6.80;95.00;;;;;;5079582;28;20206;-79
2024/01/20 04:49:44;;;;;;;2.97;2.30;;;-6.80;95.20;;;;;;5085970;28;20545;-78
2024/01/20 04:52:10;;;;;;;3.63;2.50;;;-6.70;95.10;;;;;;5083038;28;20208;-79
2024/01/20 04:54:39;;;;;;;14.33;5.67;;;-6.70;95.00;;;;;;5085979;28;20715;-78
2024/01/20 04:57:06;;;;;;;3.27;2.70;;;-6.60;94.90;;;;;;5082144;28;20197;-78
2024/01/20 04:59:32;;;;;;;5.33;3.03;;;-6.60;94.40;;;;;;5076867;28;20555;-79
2024/01/20 05:01:59;;;;;;;5.00;3.10;;;-6.70;94.30;;;;;;5075452;28;20209;-78
2024/01/20 05:04:26;;;;;;;3.23;2.90;;;-6.80;94.50;;;;;;5081675;28;20217;-79
2024/01/20 05:06:53;;;;;;;4.90;2.90;;;-6.90;95.00;;;;;;5078292;28;20197;-78
2024/01/20 05:09:25;;;;;;;2.87;2.47;;;-6.90;95.20;;;;;;5073106;28;20661;-78
2024/01/20 05:11:54;;;;;;;4.10;2.50;;;-7.00;95.20;;;;;;5080458;28;20721;-78
2024/01/20 05:14:20;;;;;;;5.50;2.63;;;-7.00;95.20;;;;;;5077057;28;20220;-79
2024/01/20 05:16:47;;;;;;;4.17;2.90;;;-7.10;95.20;;;;;;5079138;28;20193;-79
2024/01/20 05:19:14;;;;;;;3.90;2.73;;;-7.00;95.40;;;;;;5087663;28;20204;-78
2024/01/20 05:21:41;;;;;;;3.47;2.60;;;-6.80;95.20;;;;;;5077935;28;20200;-78
2024/01/20 05:24:06;;;;;;;4.83;2.90;;;-6.60;94.60;;;;;;5078378;28;20197;-81
2024/01/20 05:26:33;;;;;;;3.30;2.53;;;-6.50;94.00;;;;;;5075721;28;20228;-78
2024/01/20 05:29:01;;;;;;;5.43;2.93;;;-6.60;93.80;;;;;;5080908;28;20270;-78
2024/01/20 05:31:34;;;;;;;3.70;2.80;;;-6.70;93.90;;;;;;5084039;28;20291;-78
2024/01/20 05:34:01;;;;;;;3.90;3.17;;;-6.70;94.00;;;;;;5083061;28;20693;-79
2024/01/20 05:36:28;;;;;;;4.63;2.93;;;-6.60;94.00;;;;;;5086747;28;20197;-78
2024/01/20 05:38:55;;;;;;;3.70;2.40;;;-6.60;93.50;;;;;;5092693;28;20196;-78
2024/01/20 05:41:22;;;;;;;4.90;3.33;;;-6.80;93.70;;;;;;5086183;28;20292;-78
2024/01/20 05:43:49;;;;;;;3.93;2.93;;;-6.90;94.10;;;;;;5080420;28;20197;-78
2024/01/20 05:46:19;;;;;;;4.57;3.07;;;-7.00;94.50;;;;;;5090425;28;20209;-78
2024/01/20 05:48:46;;;;;;;3.93;3.07;;;-7.00;94.40;;;;;;5084201;28;20661;-79
2024/01/20 05:51:13;;;;;;;4.33;3.20;;;-7.10;94.50;;;;;;5085750;28;20656;-78
2024/01/20 05:53:40;;;;;;;3.57;3.10;;;-7.20;94.60;;;;;;5084490;28;20201;-79
2024/01/20 06:01:33;;;;;;;3.67;3.10;;;-7.10;95.20;;;;;;5074403;28;20305;-81
2024/01/20 06:04:00;;;;;;;4.50;3.37;;;-7.00;94.80;;;;;;5090198;28;20216;-78
2024/01/20 06:06:26;;;;;;;5.27;3.37;;;-6.90;93.90;;;;;;5088291;28;20209;-78
2024/01/20 06:08:53;;;;;;;4.83;3.40;;;-7.00;93.80;;;;;;5089850;28;20203;-78
2024/01/20 06:11:22;;;;;;;5.00;3.40;;;-7.00;93.70;;;;;;5088023;28;20217;-78
2024/01/20 06:13:49;;;;;;;5.27;3.53;;;-7.10;93.50;;;;;;5082758;28;20197;-78
2024/01/20 06:16:23;;;;;;;4.00;3.30;;;-7.20;93.60;;;;;;5082404;28;20228;-78
2024/01/20 06:18:51;;;;;;;4.30;3.03;;;-7.10;93.80;;;;;;5085563;28;20200;-78
2024/01/20 06:21:22;;;;;;;6.80;3.00;;;-7.00;93.40;;;;;;5082791;28;20224;-78
2024/01/20 06:23:49;;;;;;;3.80;3.10;;;-7.00;93.20;;;;;;5083703;28;20198;-78
2024/01/20 06:26:15;;;;;;;4.70;3.33;;;-7.10;93.00;;;;;;5087577;28;20207;-78
2024/01/20 06:28:43;;;;;;;3.97;3.10;;;-7.20;93.30;;;;;;5083850;28;20197;-79
2024/01/20 06:31:10;;;;;;;5.83;3.20;;;-7.40;93.40;;;;;;5088923;28;20701;-78
2024/01/20 06:33:37;;;;;;;3.73;2.97;;;-7.40;93.80;;;;;;5088189;28;20212;-79
2024/01/20 06:36:06;;;;;;;4.30;2.83;;;-7.50;93.50;;;;;;5087439;28;20700;-78
2024/01/20 06:38:33;;;;;;;4.47;2.90;;;-7.30;93.60;;;;;;5082729;28;20197;-82
2024/01/20 06:41:02;;;;;;;4.13;2.80;;;-7.30;93.00;;;;;;5082733;28;20197;-78
2024/01/20 06:43:28;;;;;;;5.40;3.23;;;-7.20;92.90;;;;;;5089634;28;20213;-79
2024/01/20 06:45:55;;;;;;;5.10;2.93;;;-7.30;92.50;;;;;;5087710;28;20203;-78
2024/01/20 06:51:06;;;;;;;3.37;2.60;;;-7.30;92.80;;;;;;5068750;28;20675;-80
2024/01/20 06:53:33;;;;;;;3.93;2.93;;;-7.20;92.50;;;;;;5081525;28;20196;-78
2024/01/20 06:56:00;;;;;;;5.53;3.00;;;-7.20;92.50;;;;;;5085347;28;20232;-78
2024/01/20 06:58:27;;;;;;;3.47;2.97;;;-7.30;92.10;;;;;;5090087;28;20200;-78
2024/01/20 07:00:54;;;;;;;5.97;3.20;;;-7.30;92.50;;;;;;5080803;28;20196;-78
2024/01/20 07:03:22;;;;;;;6.47;2.87;;;-7.30;92.50;;;;;;5067351;28;20201;-79
2024/01/20 07:05:49;;;;;;;4.33;3.23;;;-7.40;92.50;;;;;;5092602;28;20587;-78
2024/01/20 07:08:26;;;;;;;6.47;3.53;;;-7.60;92.40;;;;;;5085538;28;20200;-79
2024/01/20 07:10:55;;;;;;;6.27;3.20;;;-7.70;92.40;;;;;;5086336;28;20196;-78
2024/01/20 07:13:22;;;;;;;5.10;3.10;;;-7.80;93.10;;;;;;5090915;28;20195;-78
2024/01/20 07:15:53;;;;;;;4.93;3.07;;;-7.90;93.30;;;;;;5079474;28;20222;-78
2024/01/20 07:18:24;;;;;;;6.33;3.03;;;-8.00;93.50;;;;;;5079697;28;20241;-78
2024/01/20 07:20:57;;;;;;;3.50;2.80;;;-8.00;93.50;;;;;;5083368;28;20601;-79
2024/01/20 07:23:35;;;;;;;4.33;2.93;;;-8.00;93.80;;;;;;5085224;28;20232;-79
2024/01/20 07:26:02;;;;;;;6.67;2.90;;;-7.90;93.60;;;;;;5085350;28;20203;-79
2024/01/20 07:28:51;;;;;;;4.97;3.10;;;-8.00;93.60;;;;;;5048603;28;20208;-78
2024/01/20 07:31:33;;;;;;;5.70;2.93;;;-7.90;93.70;;;;;;5081003;28;20201;-78
2024/01/20 07:36:41;;;;;;;5.17;2.97;;;-7.70;93.50;;;;;;5083272;28;20245;-79
2024/01/20 07:39:09;;;;;;;5.47;2.57;;;-7.70;93.50;;;;;;5083525;28;20204;-79
2024/01/20 07:41:36;;;;;;;4.57;2.30;;;-7.60;93.60;;;;;;5088192;28;20227;-78
2024/01/20 07:44:02;;;;;;;5.37;2.77;;;-7.60;93.60;;;;;;5084669;28;20206;-79
2024/01/20 07:46:29;;;;;;;5.53;3.00;;;-7.50;93.60;;;;;;5079435;28;20662;-79
2024/01/20 07:49:11;;;;;;;7.00;2.77;;;-7.40;93.60;;;;;;5082085;28;20193;-78
2024/01/20 07:51:38;;;;;;;4.47;2.67;;;-7.40;93.50;;;;;;5093271;28;20196;-79
2024/01/20 07:54:05;;;;;;;5.93;3.23;;;-7.20;93.50;;;;;;5081500;28;20295;-78
2024/01/20 07:56:33;;;;;;;8.10;3.40;;;-7.10;93.60;;;;;;5081381;28;20228;-79
2024/01/20 07:59:00;;;;;;;3.03;2.40;;;-7.00;93.60;;;;;;5081473;28;21425;-78
2024/01/20 08:01:27;;;;;;;5.03;2.80;;;-6.80;93.90;;;;;;5080676;28;20193;-81
2024/01/20 08:03:54;;;;;;;4.47;2.87;;;-6.40;92.70;;;;;;5077886;28;20813;-80
2024/01/20 08:06:21;;;;;;;4.13;2.90;;;-6.10;91.80;;;;;;5086621;28;20707;-80
2024/01/20 08:08:48;;;;;;;4.90;2.67;;;-6.00;90.80;;;;;;5077380;28;20197;-79
2024/01/20 08:11:14;;;;;;;7.83;2.73;;;-6.00;91.00;;;;;;5075306;28;20202;-79
2024/01/20 08:13:43;;;;;;;5.23;2.77;;;-6.00;91.00;;;;;;5084089;28;20196;-80
2024/01/20 08:16:10;;;;;;;4.50;3.10;;;-6.00;91.50;;;;;;5083898;28;20284;-78
2024/01/20 08:18:37;;;;;;;11.07;3.50;;;-5.90;91.50;;;;;;5079252;28;20200;-78
2024/01/20 08:21:06;;;;;;;5.20;2.50;;;-5.80;91.70;;;;;;5080310;28;20265;-79
2024/01/20 08:23:33;;;;;;;4.43;2.77;;;-5.60;90.80;;;;;;5086768;28;20699;-80
2024/01/20 08:26:00;;;;;;;4.17;2.70;;;-5.50;90.20;;;;;;5083676;28;20199;-79
2024/01/20 08:28:26;;;;;;;6.10;2.77;;;-5.50;90.80;;;;;;5078265;28;20211;-78
2024/01/20 08:30:55;;;;;;;4.10;2.83;;;-5.40;90.70;;;;;;5082712;28;20194;-78
2024/01/20 08:33:24;;;;;;;4.60;2.97;;;-5.30;90.20;;;;;;5080820;28;20207;-77
2024/01/20 08:35:51;;;;;;;3.97;2.90;;;-5.10;90.30;;;;;;5076428;28;20248;-76
2024/01/20 08:38:18;;;;;;;3.57;2.93;;;-4.90;90.20;;;;;;5081876;28;20203;-76
2024/01/20 08:40:45;;;;;;;3.93;2.80;;;-4.60;88.30;;;;;;5081176;28;20196;-75
2024/01/20 08:43:11;;;;;;;4.60;2.70;;;-4.20;85.90;;;;;;5084972;28;20205;-78
2024/01/20 08:45:38;;;;;;;3.97;2.90;;;-3.80;81.60;;;;;;5072689;28;20212;-77
2024/01/20 08:48:08;;;;;;;5.80;3.10;;;-3.60;82.90;;;;;;5079916;28;20531;-77
2024/01/20 08:50:34;;;;;;;4.07;2.50;;;-3.30;80.50;;;;;;5082622;28;20267;-89
2024/01/20 08:53:01;;;;;;;4.10;2.97;;;-3.30;80.30;;;;;;5081801;28;20202;-76
2024/01/20 08:55:29;;;;;;;5.47;3.50;;;-3.00;76.30;;;;;;5069307;28;21148;-77
2024/01/20 08:57:56;;;;;;;5.77;3.10;;;-2.90;77.00;;;;;;5073822;28;20209;-74
2024/01/20 09:00:23;;;;;;;3.80;2.70;;;-2.70;78.60;;;;;;5071878;28;20436;-76
2024/01/20 09:02:50;;;;;;;5.27;3.03;;;-2.60;76.80;;;;;;5075966;28;20227;-79
2024/01/20 09:05:19;;;;;;;6.17;3.20;;;-2.50;75.00;;;;;;5074202;28;20716;-77
2024/01/20 09:07:46;;;;;;;3.90;3.03;;;-2.30;75.90;;;;;;5079402;28;20196;-78
2024/01/20 09:10:13;;;;;;;6.57;3.03;;;-0.80;63.70;;;;;;5079140;28;20673;-80
2024/01/20 09:12:40;;;;;;;5.97;3.13;;;0.60;43.90;;;;;;5085456;28;20203;-82
2024/01/20 09:15:07;;;;;;;4.00;3.20;;;0.80;39.60;;;;;;5073623;28;20208;-82
2024/01/20 09:17:34;;;;;;;6.40;4.10;;;0.50;37.60;;;;;;5076034;28;20661;-84
2024/01/20 09:20:01;;;;;;;5.37;3.20;;;0.10;40.30;;;;;;5079793;28;20649;-90
2024/01/20 09:22:30;;;;;;;4.97;3.63;;;0.20;40.40;;;;;;5080690;28;20200;-80
2024/01/20 09:25:17;;;;;;;6.10;3.30;;;0.30;40.40;;;;;;5084595;28;20281;-80
2024/01/20 09:27:44;;;;;;;4.35;3.20;;;1.10;36.70;;;;;;5083469;28;20184;-81
2024/01/20 09:30:11;;;;;;;9.30;3.58;;;2.40;31.20;;;;;;5078813;28;20568;-82
2024/01/20 09:32:46;;;;;;;4.38;3.38;;;2.40;26.30;;;;;;5084722;28;20202;-82
2024/01/20 09:35:13;;;;;;;5.57;3.20;;;2.60;25.70;;;;;;5075159;28;20243;-81
2024/01/20 09:37:41;;;;;;;3.72;2.92;;;3.00;25.10;;;;;;5074849;28;20232;-81
2024/01/20 09:40:09;;;;;;;4.32;3.42;;;4.50;21.00;;;;;;5079259;28;20200;-83
2024/01/20 09:42:36;;;;;;;3.97;3.25;;;5.60;17.50;;;;;;5075836;28;20200;-82
2024/01/20 09:45:04;;;;;;;5.63;3.42;;;6.10;15.20;;;;;;5080212;28;20197;-85
2024/01/20 09:47:30;;;;;;;3.60;3.15;;;5.20;16.90;;;;;;5078682;28;20261;-84
2024/01/20 09:49:57;;;;;;;8.20;3.78;;;4.90;18.40;;;;;;5084048;28;20204;-80
2024/01/20 09:52:27;;;;;;;4.85;3.42;;;4.50;18.40;;;;;;5078816;28;20201;-79
2024/01/20 09:55:04;;;;;;;5.40;3.35;;;5.40;18.40;;;;;;5078599;28;20212;-78
2024/01/20 09:57:32;;;;;;;8.05;3.42;;;7.30;13.70;;;;;;5075385;28;20211;-78
2024/01/20 10:00:01;;;;;;;9.40;3.97;;;8.40;10.90;;;;;;5083394;28;20247;-79
2024/01/20 10:02:30;;;;;;;5.50;3.42;;;8.60;10.40;;;;;;5078022;28;20233;-79
2024/01/20 10:04:59;;;;;;;5.35;3.80;;;8.80;8.10;;;;;;5084150;28;20216;-79
2024/01/20 10:07:29;;;;;;;7.15;3.97;;;7.10;10.70;;;;;;5077197;28;20251;-83
2024/01/20 10:09:58;;;;;;;7.97;4.03;;;6.10;13.40;;;;;;5078924;28;20295;-78
2024/01/20 10:12:25;;;;;;;5.47;4.22;;;5.30;15.00;;;;;;5080287;28;20663;-80
2024/01/20 10:14:51;;;;;;;8.15;4.32;;;4.90;15.90;;;;;;5079951;28;20809;-83
2024/01/20 10:17:19;;;;;;;6.53;4.05;;;4.70;16.20;;;;;;5079775;28;20221;-82
2024/01/20 10:19:46;;;;;;;6.40;3.75;;;4.20;17.30;;;;;;5076176;28;20237;-81
2024/01/20 10:22:14;;;;;;;5.40;3.72;;;3.70;18.10;;;;;;5078885;28;20210;-80
2024/01/20 10:24:48;;;;;;;5.75;3.70;;;4.20;18.50;;;;;;5081218;28;20204;-81
2024/01/20 10:27:19;;;;;;;4.20;3.20;;;4.40;16.90;;;;;;5082896;28;20211;-80
2024/01/20 10:29:52;;;;;;;4.43;3.40;;;5.50;15.20;;;;;;5086203;28;20269;-80
2024/01/20 10:32:19;;;;;;;8.55;3.15;;;4.70;16.00;;;;;;5089656;28;20189;-82
2024/01/20 10:34:46;;;;;;;5.25;2.92;;;4.10;17.20;;;;;;5085246;28;20197;-81
2024/01/20 10:37:14;;;;;;;3.85;3.10;;;4.70;17.00;;;;;;5078703;28;20221;-82
2024/01/20 10:39:43;;;;;;;6.20;3.22;;;5.40;14.40;;;;;;5080407;28;20318;-81
2024/01/20 10:42:12;;;;;;;4.28;3.65;;;5.90;13.50;;;;;;5089568;28;20249;-81
2024/01/20 10:44:45;;;;;;;4.35;3.70;;;5.60;14.40;;;;;;5078899;28;20200;-81
2024/01/20 10:47:17;;;;;;;5.10;3.40;;;5.90;14.50;;;;;;5082858;28;20205;-82
2024/01/20 10:49:46;;;;;;;6.90;3.35;;;5.50;14.20;;;;;;5093062;28;20248;-81
2024/01/20 10:52:13;;;;;;;4.75;3.85;;;5.10;14.20;;;;;;5079347;28;20203;-81
2024/01/20 10:54:43;;;;;;;4.82;3.05;;;5.50;14.10;;;;;;5085471;28;20201;-82
2024/01/20 10:57:10;;;;;;;4.80;3.00;;;5.10;13.90;;;;;;5088563;28;20223;-81
2024/01/20 10:59:42;;;;;;;4.05;3.63;;;4.40;15.10;;;;;;5085502;28;20201;-80
2024/01/20 11:02:13;;;;;;;7.82;3.03;;;4.80;15.90;;;;;;5079455;28;20208;-80
2024/01/20 11:04:43;;;;;;;4.72;3.15;;;5.40;14.80;;;;;;5084254;28;20315;-82
2024/01/20 11:07:12;;;;;;;3.47;3.00;;;5.50;14.20;;;;;;5079622;28;20255;-84
2024/01/20 11:09:39;;;;;;;6.45;3.40;;;5.00;15.60;;;;;;5084268;28;20197;-85
2024/01/20 11:12:08;;;;;;;5.63;2.92;;;4.40;17.30;;;;;;5080039;28;20559;-82
2024/01/20 11:14:35;;;;;;;7.72;3.05;;;4.60;15.30;;;;;;5084265;28;20323;-84
2024/01/20 11:17:14;;;;;;;5.18;3.30;;;4.10;16.50;;;;;;5082657;28;20227;-83
2024/01/20 11:19:41;;;;;;;6.28;3.25;;;3.90;19.20;;;;;;5083242;28;20197;-83
2024/01/20 11:22:29;;;;;;;5.30;3.13;;;3.70;19.40;;;;;;5085674;28;20189;-80
2024/01/20 11:24:59;;;;;;;6.22;3.40;;;3.30;18.50;;;;;;5079887;28;20200;-80
2024/01/20 11:27:55;;;;;;;6.07;3.90;;;3.10;19.30;;;;;;5075539;28;20755;-81
2024/01/20 11:30:26;;;;;;;8.05;3.92;;;3.00;20.00;;;;;;5035065;28;20607;-81
2024/01/20 11:32:55;;;;;;;6.00;3.35;;;2.90;19.90;;;;;;5076765;28;20270;-83
2024/01/20 11:35:22;;;;;;;6.82;3.40;;;2.80;19.80;;;;;;5078417;28;20193;-78
2024/01/20 11:37:49;;;;;;;8.07;3.43;;;2.70;19.80;;;;;;5084848;28;20216;-78
2024/01/20 11:40:16;;;;;;;5.93;3.40;;;2.50;24.10;;;;;;5084472;28;20192;-78
2024/01/20 11:45:24;;;;;;;5.13;2.83;;;2.50;21.10;;;;;;5082671;28;20203;-80
2024/01/20 11:47:50;;;;;;;5.97;3.00;;;2.40;20.40;;;;;;5083024;28;20641;-76
2024/01/20 11:50:19;;;;;;;5.60;2.70;;;2.30;21.90;;;;;;5078585;28;20197;-75
2024/01/20 11:52:45;;;;;;;6.50;2.97;;;2.30;21.80;;;;;;5085489;28;20219;-77
2024/01/20 11:55:13;;;;;;;3.40;2.33;;;2.40;21.10;;;;;;5081271;28;20193;-76
2024/01/20 11:57:39;;;;;;;3.73;1.93;;;2.30;22.80;;;;;;5085317;28;20224;-76
2024/01/20 12:00:09;;;;;;;3.87;2.57;;;2.30;20.20;;;;;;5082867;28;20205;-76
2024/01/20 12:02:39;;;;;;;3.27;2.57;;;2.30;21.30;;;;;;5076131;28;20196;-77
2024/01/20 12:05:08;;;;;;;2.73;2.10;;;2.20;21.20;;;;;;5080831;28;20274;-76
2024/01/20 12:07:36;;;;;;;4.80;2.00;;;2.20;21.80;;;;;;5081558;28;20208;-75
2024/01/20 12:10:03;;;;;;;3.10;2.30;;;2.00;22.70;;;;;;5078465;28;20205;-76
2024/01/20 12:12:30;;;;;;;5.30;1.90;;;1.70;22.70;;;;;;5085466;28;20200;-76
2024/01/20 12:14:57;;;;;;;3.13;2.20;;;1.60;23.90;;;;;;5080991;28;20866;-75
2024/01/20 12:17:26;;;;;;;3.13;2.00;;;1.70;22.90;;;;;;5080344;28;20221;-77
2024/01/20 12:19:52;;;;;;;7.33;2.40;;;1.90;23.10;;;;;;5082784;28;20281;-79
2024/01/20 12:22:19;;;;;;;2.97;2.07;;;1.90;22.10;;;;;;5077237;28;20197;-78
2024/01/20 12:24:48;;;;;;;7.40;2.50;;;1.90;21.60;;;;;;5079737;28;21532;-78
2024/01/20 12:27:16;;;;;;;3.80;1.93;;;2.10;21.10;;;;;;5065675;28;20231;-76
2024/01/20 12:29:42;;;;;;;3.80;2.10;;;2.00;20.90;;;;;;5078313;28;20198;-78
2024/01/20 12:32:09;;;;;;;2.20;2.00;;;1.90;19.40;;;;;;5063513;28;20196;-76
2024/01/20 12:34:36;;;;;;;2.60;2.10;;;1.90;20.00;;;;;;5079485;28;20231;-78
2024/01/20 12:37:03;;;;;;;4.60;2.27;;;2.00;19.40;;;;;;5078341;28;20228;-78
2024/01/20 12:39:30;;;;;;;7.00;2.30;;;1.90;20.70;;;;;;5083020;28;20767;-75
2024/01/20 12:42:02;;;;;;;2.43;2.03;;;1.90;19.70;;;;;;5079410;28;20203;-75
2024/01/20 12:44:28;;;;;;;5.37;2.40;;;1.60;20.80;;;;;;5079587;28;20247;-77
2024/01/20 12:46:56;;;;;;;2.40;2.00;;;1.40;22.60;;;;;;5079050;28;20640;-75
2024/01/20 12:49:22;;;;;;;2.60;1.70;;;1.40;23.20;;;;;;5077175;28;20197;-79
2024/01/20 12:51:49;;;;;;;2.90;2.30;;;1.50;22.80;;;;;;5083784;28;20769;-78
2024/01/20 12:54:19;;;;;;;3.67;2.27;;;1.50;23.90;;;;;;5079695;28;20627;-80
2024/01/20 12:56:47;;;;;;;2.60;2.10;;;1.70;23.50;;;;;;5078746;28;20227;-76
2024/01/20 12:59:15;;;;;;;4.07;2.30;;;1.60;23.40;;;;;;5082615;28;20242;-77
2024/01/20 13:01:42;;;;;;;4.03;2.67;;;1.50;24.20;;;;;;5081905;28;20704;-76
2024/01/20 13:04:08;;;;;;;3.20;1.80;;;1.60;24.60;;;;;;5081834;28;20222;-76
2024/01/20 13:06:35;;;;;;;3.70;2.10;;;1.70;24.10;;;;;;5080483;28;20192;-76
2024/01/20 13:09:02;;;;;;;3.50;2.63;;;1.90;24.00;;;;;;5083072;28;20201;-76
2024/01/20 13:11:32;;;;;;;4.00;2.40;;;1.90;24.30;;;;;;5078237;28;20196;-76
2024/01/20 13:14:00;;;;;;;6.03;2.30;;;1.80;23.60;;;;;;5075678;28;20223;-76
2024/01/20 13:16:28;;;;;;;2.40;2.20;;;1.80;24.80;;;;;;5077441;28;20201;-76